Flight Track Log - Related Links

Times and Time Zones

All times are in EDT time to prevent confusion due to time zone crossing. See the ASA232 flight status page for this flight to view local times or setup timezone preferences in your user account.

Time Position Orientation Groundspeed Altitude Reporting Facility
EDT Latitude Longitude Course Direction KTS MPH feet Rate Location/Type
Wed 01:18:01 PM 32.7500 -117.2500 253° West 201 231 2,400  Level Southern California TRACON
Wed 01:19:01 PM 32.7333 -117.3167 162° South 228 262 5,000 2,740 Climbing Southern California TRACON
Wed 01:20:54 PM 32.5964 -117.2650 149° Southeast 296 341 10,300 2,358 Climbing Los Angeles Center
Wed 01:21:54 PM 32.5175 -117.2097 141° Southeast 309 356 11,800 1,500 Climbing Los Angeles Center
Wed 01:29:15 PM 31.9232 -116.6423 157° South  Level FlightAware Approximate
Wed 01:30:15 PM 31.8219 -116.5922 142° Southeast  Level FlightAware Approximate
Wed 01:31:15 PM 31.7348 -116.5132 169° South  Level FlightAware Approximate
Wed 01:32:15 PM 31.6296 -116.4898 160° South  Level FlightAware Approximate
Wed 01:33:15 PM 31.5265 -116.4447 158° South  Level FlightAware Approximate
Wed 01:34:15 PM 31.4248 -116.3957 140° Southeast  Level FlightAware Approximate
Wed 01:35:15 PM 31.3400 -116.3138 141° Southeast  Level FlightAware Approximate
Wed 01:36:15 PM 31.2550 -116.2320 193° South  Level FlightAware Approximate
Wed 01:37:15 PM 31.1510 -116.2596 139° Southeast  Level FlightAware Approximate
Wed 01:38:15 PM 31.0685 -116.1747 179° South  Level FlightAware Approximate
Wed 01:39:15 PM 30.9607 -116.1724 136° Southeast  Level FlightAware Approximate
Wed 01:40:15 PM 30.8815 -116.0834 136° Southeast  Level FlightAware Approximate
Wed 01:41:15 PM 30.8022 -115.9946 136° Southeast  Level FlightAware Approximate
Wed 01:42:15 PM 30.7229 -115.9060 136° Southeast  Level FlightAware Approximate
Wed 01:43:15 PM 30.6435 -115.8175 136° Southeast  Level FlightAware Approximate
Wed 01:44:15 PM 30.5641 -115.7291 136° Southeast  Level FlightAware Approximate
Wed 01:45:15 PM 30.4846 -115.6409 136° Southeast  Level FlightAware Approximate
Wed 01:46:15 PM 30.4050 -115.5529 136° Southeast  Level FlightAware Approximate
Wed 01:47:15 PM 30.3253 -115.4649 136° Southeast  Level FlightAware Approximate
Wed 01:48:15 PM 30.2457 -115.3772 136° Southeast  Level FlightAware Approximate
Wed 01:49:15 PM 30.1659 -115.2895 136° Southeast  Level FlightAware Approximate
Wed 01:50:15 PM 30.0861 -115.2020 137° Southeast  Level FlightAware Approximate
Wed 01:51:15 PM 30.0063 -115.1147 137° Southeast  Level FlightAware Approximate
Wed 01:52:15 PM 29.9263 -115.0275 137° Southeast  Level FlightAware Approximate
Wed 01:53:15 PM 29.8463 -114.9404 137° Southeast  Level FlightAware Approximate
Wed 01:54:15 PM 29.7663 -114.8534 137° Southeast  Level FlightAware Approximate
Wed 01:55:15 PM 29.6862 -114.7666 137° Southeast  Level FlightAware Approximate
Wed 01:56:15 PM 29.6061 -114.6800 137° Southeast  Level FlightAware Approximate
Wed 01:57:15 PM 29.5259 -114.5935 140° Southeast  Level FlightAware Approximate
Wed 01:58:15 PM 29.4414 -114.5126 140° Southeast  Level FlightAware Approximate
Wed 01:59:15 PM 29.3568 -114.4319 140° Southeast  Level FlightAware Approximate
Wed 02:00:15 PM 29.2722 -114.3513 140° Southeast  Level FlightAware Approximate
Wed 02:01:15 PM 29.1875 -114.2709 140° Southeast  Level FlightAware Approximate
Wed 02:02:15 PM 29.1028 -114.1906 140° Southeast  Level FlightAware Approximate
Wed 02:03:15 PM 29.0180 -114.1104 152° Southeast  Level FlightAware Approximate
Wed 02:04:15 PM 28.9228 -114.0531 140° Southeast  Level FlightAware Approximate
Wed 02:05:15 PM 28.8384 -113.9726 131° Southeast  Level FlightAware Approximate
Wed 02:06:15 PM 28.7660 -113.8785 137° Southeast  Level FlightAware Approximate
Wed 02:07:15 PM 28.6860 -113.7924 137° Southeast  Level FlightAware Approximate
Wed 02:08:15 PM 28.6059 -113.7065 137° Southeast  Level FlightAware Approximate
Wed 02:09:15 PM 28.5258 -113.6207 137° Southeast  Level FlightAware Approximate
Wed 02:10:15 PM 28.4456 -113.5350 137° Southeast  Level FlightAware Approximate
Wed 02:11:15 PM 28.3654 -113.4495 137° Southeast  Level FlightAware Approximate
Wed 02:12:15 PM 28.2852 -113.3641 137° Southeast  Level FlightAware Approximate
Wed 02:13:15 PM 28.2048 -113.2788 137° Southeast  Level FlightAware Approximate
Wed 02:14:15 PM 28.1245 -113.1936 137° Southeast  Level FlightAware Approximate
Wed 02:15:15 PM 28.0440 -113.1086 137° Southeast  Level FlightAware Approximate
Wed 02:16:15 PM 27.9635 -113.0237 137° Southeast  Level FlightAware Approximate
Wed 02:17:15 PM 27.8830 -112.9389 137° Southeast  Level FlightAware Approximate
Wed 02:18:15 PM 27.8024 -112.8543 137° Southeast  Level FlightAware Approximate
Wed 02:19:15 PM 27.7218 -112.7698 137° Southeast  Level FlightAware Approximate
Wed 02:20:15 PM 27.6411 -112.6854 137° Southeast  Level FlightAware Approximate
Wed 02:21:15 PM 27.5603 -112.6011 137° Southeast  Level FlightAware Approximate
Wed 02:22:15 PM 27.4795 -112.5170 137° Southeast  Level FlightAware Approximate
Wed 02:23:15 PM 27.3987 -112.4329 137° Southeast  Level FlightAware Approximate
Wed 02:24:15 PM 27.3178 -112.3490 118° Southeast  Level FlightAware Approximate
Wed 02:25:15 PM 27.2702 -112.2468 138° Southeast  Level FlightAware Approximate
Wed 02:26:15 PM 27.1884 -112.1641 160° South  Level FlightAware Approximate
Wed 02:27:15 PM 27.0896 -112.1236 148° Southeast  Level FlightAware Approximate
Wed 02:28:15 PM 26.9960 -112.0588 148° Southeast  Level FlightAware Approximate
Wed 02:29:15 PM 26.9023 -111.9942 148° Southeast  Level FlightAware Approximate
Wed 02:30:15 PM 26.8086 -111.9296 148° Southeast  Level FlightAware Approximate
Wed 02:31:15 PM 26.7149 -111.8652 148° Southeast  Level FlightAware Approximate
Wed 02:32:15 PM 26.6211 -111.8008 148° Southeast  Level FlightAware Approximate
Wed 02:33:15 PM 26.5273 -111.7365 149° Southeast  Level FlightAware Approximate
Wed 02:34:15 PM 26.4335 -111.6724 149° Southeast  Level FlightAware Approximate
Wed 02:35:15 PM 26.3397 -111.6084 149° Southeast  Level FlightAware Approximate
Wed 02:36:15 PM 26.2458 -111.5444 149° Southeast  Level FlightAware Approximate
Wed 02:37:15 PM 26.1520 -111.4806 149° Southeast  Level FlightAware Approximate
Wed 02:38:15 PM 26.0580 -111.4169 149° Southeast  Level FlightAware Approximate
Wed 02:39:15 PM 25.9641 -111.3533 122° Southeast  Level FlightAware Approximate
Wed 02:40:15 PM 25.9081 -111.2546 152° Southeast  Level FlightAware Approximate
Wed 02:41:15 PM 25.8110 -111.1972 152° Southeast  Level FlightAware Approximate
Wed 02:42:15 PM 25.7139 -111.1399 152° Southeast  Level FlightAware Approximate
Wed 02:43:15 PM 25.6168 -111.0826 152° Southeast  Level FlightAware Approximate
Wed 02:44:15 PM 25.5196 -111.0255 152° Southeast  Level FlightAware Approximate
Wed 02:45:15 PM 25.4225 -110.9684 152° Southeast  Level FlightAware Approximate
Wed 02:46:15 PM 25.3253 -110.9114 152° Southeast  Level FlightAware Approximate
Wed 02:47:15 PM 25.2281 -110.8546 152° Southeast  Level FlightAware Approximate
Wed 02:48:15 PM 25.1308 -110.7978 152° Southeast  Level FlightAware Approximate
Wed 02:49:15 PM 25.0336 -110.7411 152° Southeast  Level FlightAware Approximate
Wed 02:50:15 PM 24.9363 -110.6845 152° Southeast  Level FlightAware Approximate
Wed 02:51:15 PM 24.8390 -110.6280 152° Southeast  Level FlightAware Approximate
Wed 02:52:15 PM 24.7417 -110.5715 152° Southeast  Level FlightAware Approximate
Wed 02:53:15 PM 24.6443 -110.5152 152° Southeast  Level FlightAware Approximate
Wed 02:54:15 PM 24.5470 -110.4589 152° Southeast  Level FlightAware Approximate
Wed 02:55:15 PM 24.4496 -110.4028 152° Southeast  Level FlightAware Approximate
Wed 02:56:15 PM 24.3522 -110.3467 152° Southeast  Level FlightAware Approximate
Wed 02:57:15 PM 24.2547 -110.2907 152° Southeast  Level FlightAware Approximate
Wed 02:58:15 PM 24.1573 -110.2348 152° Southeast  Level FlightAware Approximate
Wed 02:59:15 PM 24.0598 -110.1790 152° Southeast  Level FlightAware Approximate
Wed 03:00:15 PM 23.9623 -110.1232 152° Southeast  Level FlightAware Approximate
Wed 03:01:15 PM 23.8648 -110.0676 152° Southeast  Level FlightAware Approximate
Wed 03:02:15 PM 23.7673 -110.0120 152° Southeast  Level FlightAware Approximate
Wed 03:03:15 PM 23.6698 -109.9565 153° Southeast  Level FlightAware Approximate
Wed 03:04:15 PM 23.5722 -109.9011 153° Southeast  Level FlightAware Approximate
Wed 03:05:15 PM 23.4746 -109.8458 153° Southeast  Level FlightAware Approximate
Wed 03:06:15 PM 23.3770 -109.7905 153° Southeast  Level FlightAware Approximate
Wed 03:07:15 PM 23.2794 -109.7354 166° South  Level FlightAware Approximate
Wed 03:08:15 PM 23.1780 -109.7077 205° Southwest  Level FlightAware Approximate
Wed 03:09:15 PM 23.0784 -109.7585 35° Northeast  Level Estimated
Wed 03:10:15 PM 23.1333 -109.7167 348° North  Level FlightAware Approximate
Wed 03:11:15 PM 23.2408 -109.7421 168° South  Level Estimated
Wed 03:12:15 PM 23.1333 -109.7167 348° North  Level FlightAware Approximate
Wed 03:13:15 PM 23.2408 -109.7421 168° South  Level Estimated
Wed 03:14:15 PM 23.1333 -109.7167 348° North  Level FlightAware Approximate
Wed 03:15:15 PM 23.2408 -109.7421 168° South  Level Estimated
Wed 03:16:15 PM 23.1333 -109.7167 348° North  Level FlightAware Approximate
Wed 03:17:15 PM 23.2408 -109.7421 168° South  Level Estimated
Wed 03:18:15 PM 23.1333 -109.7167 348° North  Level FlightAware Approximate
Wed 03:19:15 PM 23.2408 -109.7421 168° South  Level Estimated
Wed 03:20:15 PM 23.1333 -109.7167 348° North  Level FlightAware Approximate
Wed 03:21:15 PM 23.2408 -109.7421 168° South  Level Estimated
Wed 03:22:15 PM 23.1333 -109.7167 348° North  Level FlightAware Approximate
Wed 03:23:15 PM 23.2408 -109.7421 168° South  Level Estimated
Wed 03:24:15 PM 23.1333 -109.7167 168° South  Level FlightAware Approximate

Login

Don't have an account? Register now (free) for customized features, flight alerts, and more!